Flight Track Log - Related Links

Times and Time Zones

All times are in EDT time to prevent confusion due to time zone crossing. See the N6101G flight status page for this flight to view local times or setup timezone preferences in your user account.

Time Position Orientation Groundspeed Altitude Reporting Facility
EDT Latitude Longitude Course Direction KTS MPH feet Rate Location/Type
Fri 04:29:47 PM 41.3181 -70.0572 North 140 161 2,200  Level Boston Center
Fri 04:30:46 PM 41.3628 -70.0594 358° North 151 174 3,500 1,317 Climbing Boston Center
Fri 04:31:50 PM 41.4067 -70.0581 North 155 178 4,900 1,355 Climbing Boston Center
Fri 04:32:50 PM 41.4567 -70.0553 North 155 178 6,300 1,258 Climbing Boston Center
Fri 04:33:54 PM 41.5017 -70.0533 North 155 178 7,500 1,104 Climbing Boston Center
Fri 04:34:00 PM 41.6181 -70.0403 North  Level FlightAware Approximate
Fri 04:34:55 PM 41.5497 -70.0528 360° North 168 193 8,600  Level Boston Center
Fri 04:35:00 PM 41.6792 -70.0333 North  Level FlightAware Approximate
Fri 04:35:56 PM 41.5983 -70.0508 North 172 198 9,700  Level Boston Center
Fri 04:36:59 PM 41.6456 -70.0497 North 172 198 10,700 898 Climbing Boston Center
Fri 04:38:00 PM 41.6341 -70.1161 257° West  Level FlightAware Approximate
Fri 04:39:03 PM 41.7478 -70.0458 257° West 183 211 12,500  Level Boston Center
Fri 04:40:04 PM 41.8092 -70.0453 360° North 184 212 13,600 893 Climbing Boston Center
Fri 04:41:04 PM 41.8083 -70.0992 269° West 174 200 14,300 774 Climbing Boston Center
Fri 04:42:08 PM 41.7844 -70.1550 240° Southwest 174 200 15,200 774 Climbing Boston Center
Fri 04:43:08 PM 41.7608 -70.2106 240° Southwest 174 200 15,900 919 Climbing Boston Center
Fri 04:44:12 PM 41.7367 -70.2664 240° Southwest 174 200 17,100 1,016 Climbing Boston Center
Fri 04:45:12 PM 41.7136 -70.3225 241° Southwest 173 199 18,000 992 Climbing Boston Center
Fri 04:46:13 PM 41.6861 -70.3869 240° Southwest 176 203 19,100 1,065 Climbing Boston Center
Fri 04:47:16 PM 41.6600 -70.4456 239° Southwest 180 207 20,200 1,016 Climbing Boston Center
Fri 04:48:17 PM 41.6303 -70.5072 237° Southwest 181 208 21,200 934 Climbing Boston Center
Fri 04:49:18 PM 41.5994 -70.5639 234° Southwest 184 212 22,100 816 Climbing Boston Center
Fri 04:50:22 PM 41.5681 -70.6219 234° Southwest 189 217 22,900 823 Climbing Boston Center
Fri 04:51:22 PM 41.5367 -70.6794 234° Southwest 189 217 23,800 793 Climbing Boston Center
Fri 04:52:23 PM 41.5067 -70.7381 236° Southwest 189 217 24,500 726 Climbing Boston Center
Fri 04:53:26 PM 41.4756 -70.7958 234° Southwest 190 219 25,300 829 Climbing Boston Center
Fri 04:54:26 PM 41.4372 -70.8658 234° Southwest 191 220 26,200 768 Climbing Boston Center
Fri 04:55:31 PM 41.4083 -70.9211 235° Southwest 186 214 26,900 768 Climbing Boston Center
Fri 04:56:31 PM 41.3778 -70.9753 233° Southwest 185 213 27,800 545 Climbing Boston Center
Fri 04:57:32 PM 41.3478 -71.0325 235° Southwest 186 214 28,000 96 Climbing Boston Center
Fri 04:58:36 PM 41.3136 -71.0953 234° Southwest 202 232 28,000  Level Boston Center
Fri 04:59:36 PM 41.2778 -71.1606 234° Southwest 213 245 28,000  Level Boston Center
Fri 05:00:40 PM 41.2444 -71.2225 234° Southwest 212 244 28,000  Level Boston Center
Fri 05:01:40 PM 41.2056 -71.2953 235° Southwest 206 237 28,000  Level Boston Center
Fri 05:02:41 PM 41.1722 -71.3544 233° Southwest 204 235 28,000  Level Boston Center
Fri 05:03:44 PM 41.1397 -71.4136 234° Southwest 202 232 28,000  Level Boston Center
Fri 05:04:45 PM 41.1072 -71.4739 234° Southwest 202 232 28,000  Level Boston Center
Fri 05:05:49 PM 41.0739 -71.5319 233° Southwest 202 232 28,000  Level Boston Center
Fri 05:06:49 PM 41.0367 -71.5983 233° Southwest 202 232 28,000  Level Boston Center
Fri 05:07:50 PM 41.0044 -71.6581 234° Southwest 201 231 28,000  Level Boston Center
Fri 05:08:53 PM 40.9689 -71.7236 234° Southwest 201 231 28,000  Level Boston Center
Fri 05:09:55 PM 40.9358 -71.7828 234° Southwest 201 231 28,000  Level Boston Center
Fri 05:10:55 PM 40.9017 -71.8417 233° Southwest 202 232 28,000  Level Boston Center
Fri 05:11:58 PM 40.8675 -71.9025 233° Southwest 202 232 28,000  Level Boston Center
Fri 05:13:00 PM 40.8339 -71.9628 234° Southwest 203 234 28,000  Level Boston Center
Fri 05:14:01 PM 40.8011 -72.0225 234° Southwest 202 232 28,000  Level Boston Center
Fri 05:15:05 PM 40.7603 -72.0956 234° Southwest 203 234 28,000  Level Boston Center
Fri 05:16:05 PM 40.7256 -72.1558 233° Southwest 203 234 28,000  Level Boston Center
Fri 05:17:07 PM 40.6925 -72.2164 234° Southwest 203 234 28,000  Level Boston Center
Fri 05:18:11 PM 40.6578 -72.2764 233° Southwest 203 234 28,000  Level Boston Center
Fri 05:19:11 PM 40.6242 -72.3367 234° Southwest 204 235 28,000  Level Boston Center
Fri 05:20:15 PM 40.5903 -72.3961 233° Southwest 204 235 28,000  Level Boston Center
Fri 05:21:16 PM 40.5558 -72.4569 233° Southwest 204 235 28,000  Level Boston Center
Fri 05:22:17 PM 40.5222 -72.5175 234° Southwest 204 235 28,000  Level Boston Center
Fri 05:23:21 PM 40.4803 -72.5892 232° Southwest 205 236 28,000  Level Boston Center
Fri 05:24:22 PM 40.4467 -72.6500 234° Southwest 205 236 28,000  Level Boston Center
Fri 05:25:23 PM 40.4122 -72.7097 233° Southwest 205 236 28,000  Level Boston Center
Fri 05:26:26 PM 40.3772 -72.7703 233° Southwest 206 237 28,000  Level Boston Center
Fri 05:27:28 PM 40.3431 -72.8308 234° Southwest 206 237 28,000  Level Boston Center
Fri 05:28:28 PM 40.3078 -72.8914 233° Southwest 207 238 28,000  Level Boston Center
Fri 05:29:32 PM 40.2650 -72.9653 233° Southwest 208 239 28,000  Level Boston Center
Fri 05:31:33 PM 40.1914 -73.0903 232° Southwest 209 241 28,000  Level Washington Center
Fri 05:32:33 PM 40.1572 -73.1514 234° Southwest 209 241 28,000  Level Washington Center
Fri 05:33:33 PM 40.1192 -73.2150 232° Southwest 215 247 28,000  Level Washington Center
Fri 05:34:31 PM 40.0828 -73.2731 231° Southwest 215 247 28,000  Level Washington Center
Fri 05:35:32 PM 40.0358 -73.3261 221° Southwest 215 247 28,000  Level Washington Center
Fri 05:36:33 PM 39.9867 -73.3764 218° Southwest 220 253 28,000  Level Washington Center
Fri 05:37:33 PM 39.9419 -73.4292 222° Southwest 220 253 28,000  Level Washington Center
Fri 05:38:31 PM 39.8969 -73.4819 222° Southwest 220 253 28,000  Level Washington Center
Fri 05:39:33 PM 39.8478 -73.5322 218° Southwest 225 259 28,000  Level Washington Center
Fri 05:40:33 PM 39.8028 -73.5847 222° Southwest 225 259 28,000  Level Washington Center
Fri 05:41:31 PM 39.7558 -73.6400 222° Southwest 225 259 28,000  Level Washington Center
Fri 05:42:32 PM 39.7089 -73.6925 221° Southwest 225 259 28,000  Level Washington Center
Fri 05:43:33 PM 39.6617 -73.7425 219° Southwest 225 259 28,000  Level Washington Center
Fri 05:44:31 PM 39.6144 -73.7947 220° Southwest 225 259 28,000  Level Washington Center
Fri 05:45:31 PM 39.5675 -73.8472 221° Southwest 225 259 28,000  Level Washington Center
Fri 05:46:33 PM 39.5181 -73.8994 219° Southwest 225 259 28,000  Level Washington Center
Fri 05:47:33 PM 39.4731 -73.9489 220° Southwest 225 259 28,000  Level Washington Center
Fri 05:48:31 PM 39.4236 -74.0011 219° Southwest 225 259 28,000  Level Washington Center
Fri 05:49:32 PM 39.3786 -74.0531 222° Southwest 225 259 28,000  Level Washington Center
Fri 05:50:33 PM 39.3292 -74.1078 221° Southwest 225 259 28,000  Level Washington Center
Fri 05:51:31 PM 39.2797 -74.1597 219° Southwest 225 259 28,000  Level Washington Center
Fri 05:52:31 PM 39.2344 -74.2117 222° Southwest 225 259 28,000  Level Washington Center
Fri 05:53:32 PM 39.1831 -74.2661 219° Southwest 230 265 28,000  Level Washington Center
Fri 05:54:33 PM 39.1378 -74.3178 222° Southwest 230 265 28,000  Level Washington Center
Fri 05:55:32 PM 39.0883 -74.3694 219° Southwest 230 265 28,000  Level Washington Center
Fri 05:56:32 PM 39.0408 -74.4211 220° Southwest 225 259 28,000  Level Washington Center
Fri 05:57:33 PM 38.9933 -74.4753 222° Southwest 225 259 28,000  Level Washington Center
Fri 05:58:31 PM 38.9439 -74.5267 219° Southwest 225 259 28,000  Level Washington Center
Fri 05:59:31 PM 38.8983 -74.5728 218° Southwest 225 259 28,000  Level Washington Center
Fri 06:00:32 PM 38.8508 -74.6267 221° Southwest 230 265 28,000  Level Washington Center
Fri 06:01:33 PM 38.8056 -74.6753 220° Southwest 225 259 28,000  Level Washington Center
Fri 06:02:31 PM 38.7578 -74.7264 220° Southwest 230 265 28,000  Level Washington Center
Fri 06:03:31 PM 38.7083 -74.7803 220° Southwest 230 265 28,000  Level Washington Center
Fri 06:04:31 PM 38.6669 -74.8233 219° Southwest 225 259 28,000  Level Washington Center
Fri 06:05:32 PM 38.6192 -74.8742 220° Southwest 225 259 28,000  Level Washington Center
Fri 06:06:33 PM 38.5717 -74.9278 221° Southwest 230 265 28,000  Level Washington Center
Fri 06:07:31 PM 38.5239 -74.9733 217° Southwest 230 265 28,000  Level Washington Center
Fri 06:08:32 PM 38.4761 -75.0242 220° Southwest 225 259 28,000  Level Washington Center
Fri 06:09:33 PM 38.4283 -75.0750 220° Southwest 225 259 28,000  Level Washington Center
Fri 06:10:31 PM 38.3786 -75.1256 219° Southwest 225 259 28,000  Level Washington Center
Fri 06:11:31 PM 38.3308 -75.1736 218° Southwest 230 265 28,000  Level Washington Center
Fri 06:12:32 PM 38.2831 -75.2425 229° Southwest 230 265 28,000  Level Washington Center
Fri 06:13:31 PM 38.2353 -75.2931 220° Southwest 230 265 28,000  Level Washington Center
Fri 06:14:31 PM 38.1917 -75.3514 226° Southwest 230 265 28,000  Level Washington Center
Fri 06:15:31 PM 38.1481 -75.4017 222° Southwest 225 259 28,000  Level Washington Center
Fri 06:16:32 PM 38.1000 -75.4519 219° Southwest 225 259 28,000  Level Washington Center
Fri 06:17:33 PM 38.0500 -75.5022 218° Southwest 225 259 28,000  Level Washington Center
Fri 06:18:31 PM 38.0064 -75.5603 226° Southwest 230 265 28,000  Level Washington Center
Fri 06:19:32 PM 37.9603 -75.6156 223° Southwest 235 270 28,000  Level Washington Center
Fri 06:20:33 PM 37.9144 -75.6681 222° Southwest 235 270 28,000  Level Washington Center
Fri 06:21:31 PM 37.8706 -75.7233 225° Southwest 235 270 28,000  Level Washington Center
Fri 06:22:31 PM 37.8228 -75.7706 218° Southwest 235 270 28,000  Level Washington Center
Fri 06:23:33 PM 37.7872 -75.8153 225° Southwest 235 270 28,000  Level Washington Center
Fri 06:24:31 PM 37.7306 -75.8806 222° Southwest 230 265 28,000  Level Washington Center
Fri 06:25:31 PM 37.6847 -75.9328 222° Southwest 230 265 28,000  Level Washington Center
Fri 06:26:32 PM 37.6386 -75.9825 221° Southwest 230 265 28,000  Level Washington Center
Fri 06:27:33 PM 37.5925 -76.0347 222° Southwest 230 265 28,000  Level Washington Center
Fri 06:28:32 PM 37.5464 -76.0869 222° Southwest 230 265 28,000  Level Washington Center
Fri 06:29:33 PM 37.5025 -76.1389 223° Southwest 224 258 28,000  Level Washington Center
Fri 06:30:31 PM 37.4583 -76.1806 217° Southwest 224 258 28,000  Level Washington Center
Fri 06:31:32 PM 37.4122 -76.2325 222° Southwest 224 258 28,000  Level Washington Center
Fri 06:32:33 PM 37.3661 -76.2844 222° Southwest 224 258 28,000  Level Washington Center
Fri 06:33:33 PM 37.3219 -76.3361 223° Southwest 224 258 28,000  Level Washington Center
Fri 06:34:31 PM 37.2758 -76.3853 220° Southwest 224 258 28,000  Level Washington Center
Fri 06:35:32 PM 37.2294 -76.4369 222° Southwest 219 252 28,000  Level Washington Center
Fri 06:36:33 PM 37.1853 -76.4886 223° Southwest 219 252 28,000  Level Washington Center
Fri 06:37:31 PM 37.1392 -76.5375 220° Southwest 219 252 28,000  Level Washington Center
Fri 06:38:33 PM 37.0969 -76.5892 224° Southwest 219 252 28,000  Level Washington Center
Fri 06:39:31 PM 37.0506 -76.6381 220° Southwest 219 252 28,000 -353 Level Washington Center
Fri 06:40:32 PM 37.0044 -76.6894 222° Southwest 219 252 27,300 -934 Descending Washington Center
Fri 06:41:33 PM 36.9536 -76.7458 222° Southwest 230 265 26,100 -1,210 Descending Washington Center
Fri 06:42:31 PM 36.9031 -76.8050 223° Southwest 241 277 24,900 -1,412 Descending Washington Center
Fri 06:43:32 PM 36.8525 -76.8586 220° Southwest 247 284 23,300 -1,339 Descending Washington Center
Fri 06:44:32 PM 36.8017 -76.9147 221° Southwest 247 284 22,200 -645 Descending Washington Center
Fri 06:45:33 PM 36.7553 -76.9658 221° Southwest 237 273 22,000 -100 Descending Washington Center
Fri 06:46:32 PM 36.7108 -77.0169 223° Southwest 232 267 22,000  Level Washington Center
Fri 06:47:33 PM 36.6767 -77.0783 235° Southwest 221 254 22,000  Level Washington Center
Fri 06:48:33 PM 36.6467 -77.1453 241° Southwest 221 254 22,000  Level Washington Center
Fri 06:49:32 PM 36.6189 -77.2094 242° Southwest 221 254 22,000  Level Washington Center
Fri 06:50:32 PM 36.5886 -77.2733 239° Southwest 221 254 22,000  Level Washington Center
Fri 06:51:33 PM 36.5606 -77.3375 241° Southwest 221 254 22,000  Level Washington Center
Fri 06:52:31 PM 36.5283 -77.4014 238° Southwest 221 254 22,000  Level Washington Center
Fri 06:53:32 PM 36.5003 -77.4653 241° Southwest 221 254 22,000  Level Washington Center
Fri 06:54:33 PM 36.4700 -77.5292 240° Southwest 221 254 22,000  Level Washington Center
Fri 06:55:31 PM 36.4419 -77.5931 241° Southwest 221 254 22,000  Level Washington Center
Fri 06:56:33 PM 36.4136 -77.6644 244° Southwest 221 254 22,000  Level Washington Center
Fri 06:57:31 PM 36.3811 -77.7308 239° Southwest 221 254 22,000  Level Washington Center
Fri 06:58:31 PM 36.3508 -77.7944 239° Southwest 226 260 22,000  Level Washington Center
Fri 06:59:31 PM 36.3203 -77.8606 240° Southwest 221 254 22,000  Level Washington Center
Fri 07:00:32 PM 36.3022 -77.9269 251° West 221 254 22,000  Level Washington Center
Fri 07:01:33 PM 36.2925 -77.9989 261° West 216 249 22,000 -50 Level Washington Center
Fri 07:02:31 PM 36.2847 -78.0708 262° West 216 249 21,900 -353 Descending Washington Center
Fri 07:03:32 PM 36.2772 -78.1403 262° West 216 249 21,300 -595 Descending Washington Center
Fri 07:04:32 PM 36.2694 -78.2119 262° West 216 249 20,700 -595 Descending Washington Center
Fri 07:05:33 PM 36.2617 -78.2786 262° West 216 249 20,100 -595 Descending Washington Center
Fri 07:06:33 PM 36.2517 -78.3481 260° West 211 243 19,500 -610 Descending Washington Center
Fri 07:07:31 PM 36.2461 -78.4122 264° West 206 237 18,900 -610 Descending Washington Center
Fri 07:08:31 PM 36.2361 -78.4761 259° West 199 229 18,300 -496 Descending Washington Center
Fri 07:09:32 PM 36.2283 -78.5350 261° West 191 220 17,900 -492 Descending Washington Center
Fri 07:10:33 PM 36.2206 -78.6044 262° West 191 220 17,300 -605 Descending Washington Center
Fri 07:11:31 PM 36.2128 -78.6633 261° West 191 220 16,700 -605 Descending Washington Center
Fri 07:12:32 PM 36.2044 -78.7350 262° West 191 220 16,100 -344 Descending Washington Center
Fri 07:13:33 PM 36.1944 -78.7989 259° West 196 226 16,000 -50 Descending Washington Center
Fri 07:14:33 PM 36.1886 -78.8606 263° West 201 231 16,000  Level Washington Center
Fri 07:15:33 PM 36.1803 -78.9372 262° West 201 231 16,000 -150 Level Washington Center
Fri 07:16:33 PM 36.1722 -79.0014 261° West 201 231 15,700 -454 Descending Washington Center
Fri 07:17:32 PM 36.1617 -79.0756 260° West 201 231 15,100 -605 Descending Washington Center
Fri 07:18:32 PM 36.1533 -79.1444 261° West 201 231 14,500 -378 Descending Washington Center
Fri 07:35:15 PM 35.8192 -80.2128 230° Southwest 208 239 8,400 -367 Descending Atlanta Center
Fri 07:36:16 PM 35.8044 -80.2775 254° West 193 222 8,000 -443 Descending Atlanta Center
Fri 07:37:17 PM 35.7919 -80.3394 256° West 181 208 7,500 -738 Descending Atlanta Center
Fri 07:38:18 PM 35.7747 -80.3964 250° West 175 201 6,500 -744 Descending Atlanta Center
Fri 07:39:18 PM 35.7536 -80.4589 247° West 195 224 6,000 -248 Descending Atlanta Center
Fri 07:40:19 PM 35.7258 -80.5114 237° Southwest 196 226 6,000  Level Atlanta Center
Fri 07:41:20 PM 35.6767 -80.5414 206° Southwest 191 220 6,000  Level Atlanta Center
Fri 07:42:27 PM 35.6256 -80.5769 209° Southwest 183 211 6,000  Level Atlanta Center
Fri 07:43:28 PM 35.5847 -80.6067 211° Southwest 181 208 6,000  Level Atlanta Center
Fri 07:44:28 PM 35.5375 -80.6367 207° Southwest 181 208 6,000  Level Atlanta Center
Fri 07:45:29 PM 35.4947 -80.6692 212° Southwest 182 209 6,000 -49 Level Atlanta Center
Fri 07:46:30 PM 35.4517 -80.6989 209° Southwest 182 209 5,900 -443 Descending Atlanta Center
Fri 07:47:31 PM 35.4067 -80.7289 209° Southwest 180 207 5,100 -744 Descending Atlanta Center
Fri 07:48:31 PM 35.3617 -80.7611 210° Southwest 179 206 4,400 -793 Descending Atlanta Center
Fri 07:49:32 PM 35.3208 -80.7958 215° Southwest 175 201 3,500 -590 Descending Atlanta Center
Fri 07:50:33 PM 35.2925 -80.8378 230° Southwest 157 181 3,200 -645 Descending Atlanta Center
Fri 07:51:33 PM 35.2664 -80.8717 227° Southwest 138 159 2,200 -893 Descending Atlanta Center
Fri 07:52:34 PM 35.2403 -80.9083 229° Southwest 140 161 1,400 -787 Descending Atlanta Center

Login

Don't have an account? Register now (free) for customized features, flight alerts, and more!